PST,Max TemperatureF,Mean TemperatureF,Min TemperatureF,Max Dew PointF,MeanDew PointF,Min DewpointF,Max Humidity, Mean Humidity, Min Humidity, Max Sea Level PressureIn, Mean Sea Level PressureIn, Min Sea Level PressureIn, Max VisibilityMiles, Mean VisibilityMiles, Min VisibilityMiles, Max Wind SpeedMPH, Mean Wind SpeedMPH, Max Gust SpeedMPH,PrecipitationIn, CloudCover, Events, WindDirDegrees
2012-11-1,63,56,48,49,46,41,90,76,45,30.06,29.91,29.79,10,10,4,16,7,,0.19,6,Rain,156
2012-11-2,64,56,48,49,46,43,100,77,47,30.11,30.05,30.01,10,8,4,15,6,,0.00,2,,148
2012-11-3,64,56,48,51,48,46,96,78,60,30.19,30.11,30.03,10,8,4,9,5,,0.01,6,Rain,186
2012-11-4,71,62,54,52,49,46,83,65,46,30.31,30.28,30.20,10,10,4,12,5,,0.00,6,,168
2012-11-5,70,62,52,56,51,48,87,69,51,30.30,30.24,30.15,10,10,7,15,8,,0.00,1,,190
2012-11-6,64,56,48,54,50,46,100,87,52,30.16,30.02,29.91,10,4,0,15,3,,0.01,3,Fog,183
2012-11-7,59,50,37,49,39,30,92,66,43,30.11,30.04,29.94,10,10,4,18,13,25,0.14,3,Rain,190
2012-11-8,39,36,33,36,33,29,93,82,65,29.93,29.79,29.74,10,9,2,13,6,,0.00,6,,190
2012-11-9,43,38,34,36,34,33,96,84,70,29.92,29.85,29.78,10,8,2,10,4,,0.16,8,Rain,189
2012-11-10,39,36,32,34,32,28,100,89,65,30.26,30.06,29.90,10,6,0,8,3,,0.01,7,Fog-Snow,189
2012-11-11,45,36,28,36,32,26,100,81,53,30.33,30.30,30.27,10,7,1,9,2,,0.00,7,,176
2012-11-12,50,44,37,39,38,34,97,74,61,30.29,30.24,30.20,10,9,4,17,9,24,0.24,8,Rain,176
2012-11-13,44,40,35,40,38,36,100,95,85,30.29,30.24,30.17,6,2,0,8,2,,0.13,7,Fog-Rain,248
2012-11-14,46,42,37,45,40,37,100,93,87,30.35,30.27,30.21,6,3,0,8,3,,0.02,8,Fog-Rain,335
2012-11-15,43,39,35,41,38,36,100,95,81,30.34,30.18,30.02,10,3,0,7,4,,0.01,8,Fog,239
2012-11-16,43,41,39,40,38,37,100,93,86,30.05,29.99,29.91,9,5,2,7,2,,0.00,8,,306
2012-11-17,48,44,39,44,40,37,100,95,80,29.91,29.74,29.56,10,3,0,22,5,26,0.32,7,Fog-Rain,241
2012-11-18,55,48,42,38,32,29,76,52,40,29.93,29.88,29.80,10,10,10,34,13,56,0.01,4,Rain,165
2012-11-19,64,57,50,49,40,34,96,56,36,29.85,29.74,29.61,10,9,4,37,26,52,0.14,8,Rain,158
2012-11-20,57,52,46,50,48,43,96,87,74,29.87,29.76,29.68,10,8,2,13,5,,0.79,7,Rain-Thunderstorm,121
2012-11-21,52,46,39,43,36,30,89,68,44,30.33,29.95,29.62,10,10,10,23,11,34,0.06,3,Rain,208
2012-11-22,53,44,36,34,31,27,86,65,41,30.46,30.40,30.34,10,10,10,12,7,,0.00,0,,123
2012-11-23,51,40,35,45,36,32,89,82,74,30.35,30.23,30.13,10,10,6,13,3,,0.15,3,Rain,124
2012-11-24,51,46,39,47,44,38,93,86,74,30.20,30.16,30.14,10,9,4,18,8,,0.25,8,Rain,209
2012-11-25,45,38,32,38,32,28,93,82,56,30.35,30.29,30.18,10,10,7,8,4,,0.00,1,,167
2012-11-26,32,30,28,30,29,27,100,94,87,30.33,30.27,30.21,10,1,0,8,5,,0.00,7,Fog-Snow,186
2012-11-27,30,30,30,30,29,28,100,96,92,30.29,30.21,30.13,5,2,0,7,2,,0.00,8,Fog-Snow,225
2012-11-28,33,32,30,32,30,28,100,95,87,30.14,29.94,29.73,10,3,0,12,3,,0.02,8,Fog-Rain,219
2012-11-29,43,34,28,41,32,27,100,96,87,29.91,29.75,29.62,10,2,0,13,3,,0.14,6,Fog-Rain,219
2012-11-30,59,47,35,50,40,35,100,84,46,29.63,29.58,29.51,10,6,0,18,7,22,0.07,6,Fog-Rain,165